createdAt,value
2018-11-11T00:01:12.873Z,98238.43
2018-11-11T00:03:41.758Z,98237.14
2018-11-11T00:06:11.630Z,98243.02
2018-11-11T00:08:40.833Z,98248.32
2018-11-11T00:11:11.367Z,98264.35
2018-11-11T00:13:40.941Z,98260.86
2018-11-11T00:16:11.219Z,98251.58
2018-11-11T00:18:40.193Z,98250.52
2018-11-11T00:21:09.356Z,98249.67
2018-11-11T00:23:38.766Z,98265.31
2018-11-11T00:26:08.062Z,98260.38
2018-11-11T00:28:37.306Z,98257.73
2018-11-11T00:31:05.993Z,98268.06
2018-11-11T00:33:34.665Z,98262.67
2018-11-11T00:36:03.602Z,98259.05
2018-11-11T00:38:33.305Z,98259.41
2018-11-11T00:41:03.957Z,98249.77
2018-11-11T00:43:33.547Z,98256.53
2018-11-11T00:46:03.420Z,98253.17
2018-11-11T00:48:33.935Z,98248.84
2018-11-11T00:51:07.593Z,98251.45
2018-11-11T00:53:36.654Z,98239.66
2018-11-11T00:56:05.887Z,98248.45
2018-11-11T00:58:36.208Z,98253.27
2018-11-11T01:01:05.464Z,98257.47
2018-11-11T01:03:34.363Z,98253.98
2018-11-11T01:06:04.645Z,98252.30
2018-11-11T01:08:34.084Z,98248.45
2018-11-11T01:11:04.430Z,98259.89
2018-11-11T01:13:33.039Z,98260.73
2018-11-11T01:16:03.685Z,98252.52
2018-11-11T01:18:34.993Z,98256.02
2018-11-11T01:21:04.868Z,98264.58
2018-11-11T01:23:34.784Z,98278.67
2018-11-11T01:26:04.579Z,98281.77
2018-11-11T01:28:34.060Z,98283.62
2018-11-11T01:31:02.957Z,98287.08
2018-11-11T01:33:32.660Z,98283.10
2018-11-11T01:36:01.964Z,98289.15
2018-11-11T01:38:32.576Z,98288.27
2018-11-11T01:41:02.056Z,98289.73
2018-11-11T01:43:31.743Z,98301.53
2018-11-11T01:46:01.023Z,98311.03
2018-11-11T01:48:30.976Z,98318.64
2018-11-11T01:51:00.413Z,98325.72
2018-11-11T01:53:29.449Z,98317.80
2018-11-11T01:55:59.059Z,98315.50
2018-11-11T01:58:28.605Z,98302.86
2018-11-11T02:00:57.727Z,98312.01
2018-11-11T02:03:28.217Z,98330.56
2018-11-11T02:05:57.752Z,98326.59
2018-11-11T02:08:27.603Z,98318.73
2018-11-11T02:10:56.640Z,98321.52
2018-11-11T02:13:25.911Z,98327.78
2018-11-11T02:15:55.813Z,98330.08
2018-11-11T02:18:25.022Z,98325.98
2018-11-11T02:20:55.050Z,98327.66
2018-11-11T02:23:24.094Z,98322.61
2018-11-11T02:25:54.008Z,98321.16
2018-11-11T02:28:23.412Z,98322.73
2018-11-11T02:30:53.584Z,98311.39
2018-11-11T02:33:24.080Z,98305.51
2018-11-11T02:35:52.657Z,98314.53
2018-11-11T02:38:21.247Z,98304.57
2018-11-11T02:40:50.621Z,98302.98
2018-11-11T02:43:19.719Z,98294.09
2018-11-11T02:45:48.882Z,98289.41
2018-11-11T02:48:18.422Z,98277.98
2018-11-11T02:50:47.850Z,98267.48
2018-11-11T02:53:16.753Z,98274.02
2018-11-11T02:55:45.660Z,98281.47
2018-11-11T02:58:14.434Z,98282.67
2018-11-11T03:00:43.367Z,98279.06
2018-11-11T03:03:12.417Z,98275.33
2018-11-11T03:05:42.046Z,98284.13
2018-11-11T03:08:11.246Z,98287.52
2018-11-11T03:10:41.337Z,98289.55
2018-11-11T03:13:14.389Z,98289.55
2018-11-11T03:15:44.505Z,98299.07
2018-11-11T03:18:13.981Z,98285.21
2018-11-11T03:20:43.802Z,98283.05
2018-11-11T03:23:13.438Z,98279.56
2018-11-11T03:25:42.250Z,98265.59
2018-11-11T03:28:11.848Z,98273.66
2018-11-11T03:30:40.549Z,98276.90
2018-11-11T03:33:09.516Z,98267.40
2018-11-11T03:35:38.713Z,98269.69
2018-11-11T03:38:09.126Z,98262.97
2018-11-11T03:40:38.880Z,98260.55
2018-11-11T03:43:08.388Z,98263.42
2018-11-11T03:45:37.065Z,98260.07
2018-11-11T03:48:06.708Z,98265.72
2018-11-11T03:50:37.403Z,98272.72
2018-11-11T03:53:07.010Z,98263.32
2018-11-11T03:55:36.239Z,98274.27
2018-11-11T03:58:04.859Z,98263.06
2018-11-11T04:00:33.770Z,98266.94
2018-11-11T04:03:03.003Z,98256.83
2018-11-11T04:05:31.929Z,98261.16
2018-11-11T04:08:02.208Z,98265.72
2018-11-11T04:10:31.803Z,98258.00
2018-11-11T04:13:01.051Z,98258.86
2018-11-11T04:15:30.322Z,98250.41
2018-11-11T04:17:59.579Z,98249.56
2018-11-11T04:20:29.902Z,98250.44
2018-11-11T04:23:00.198Z,98247.17
2018-11-11T04:25:30.914Z,98250.20
2018-11-11T04:28:00.268Z,98250.56
2018-11-11T04:30:28.859Z,98252.60
2018-11-11T04:32:59.240Z,98242.84
2018-11-11T04:35:28.961Z,98247.77
2018-11-11T04:37:58.771Z,98251.50
2018-11-11T04:40:28.015Z,98247.41
2018-11-11T04:42:57.968Z,98248.25
2018-11-11T04:45:27.419Z,98249.42
2018-11-11T04:47:56.845Z,98252.71
2018-11-11T04:50:26.365Z,98257.50
2018-11-11T04:52:55.843Z,98254.97
2018-11-11T04:55:24.465Z,98258.70
2018-11-11T04:57:54.348Z,98265.94
2018-11-11T05:00:24.150Z,98253.66
2018-11-11T05:02:54.331Z,98277.25
2018-11-11T05:05:23.730Z,98281.09
2018-11-11T05:07:52.981Z,98276.28
2018-11-11T05:10:23.580Z,98279.03
2018-11-11T05:12:52.165Z,98270.72
2018-11-11T05:15:20.948Z,98270.95
2018-11-11T05:17:49.960Z,98266.72
2018-11-11T05:20:20.324Z,98267.94
2018-11-11T05:22:49.469Z,98280.58
2018-11-11T05:25:18.389Z,98285.75
2018-11-11T05:27:47.704Z,98291.80
2018-11-11T05:30:19.518Z,98295.52
2018-11-11T05:32:48.712Z,98281.33
2018-11-11T05:35:18.109Z,98284.69
2018-11-11T05:37:48.045Z,98281.33
2018-11-11T05:40:17.181Z,98290.47
2018-11-11T05:42:47.635Z,98286.39
2018-11-11T05:45:17.859Z,98294.09
2018-11-11T05:47:46.728Z,98284.69
2018-11-11T05:50:17.053Z,98286.85
2018-11-11T05:52:46.935Z,98292.89
2018-11-11T05:55:15.500Z,98292.77
2018-11-11T05:57:45.492Z,98293.60
2018-11-11T06:00:16.518Z,98290.62
2018-11-11T06:02:45.937Z,98284.10
2018-11-11T06:05:18.972Z,98256.66
2018-11-11T06:07:49.009Z,98249.45
2018-11-11T06:10:18.495Z,98256.58
2018-11-11T06:12:47.674Z,98260.16
2018-11-11T06:15:16.922Z,98265.00
2018-11-11T06:17:46.119Z,98280.05
2018-11-11T06:20:16.900Z,98300.17
2018-11-11T06:22:46.404Z,98316.05
2018-11-11T06:25:15.893Z,98311.34
2018-11-11T06:27:45.131Z,98314.00
2018-11-11T06:30:14.801Z,98320.38
2018-11-11T06:32:44.491Z,98340.37
2018-11-11T06:35:15.245Z,98326.89
2018-11-11T06:37:44.146Z,98335.90
2018-11-11T06:40:14.193Z,98324.95
2018-11-11T06:42:43.452Z,98336.62
2018-11-11T06:45:13.562Z,98351.92
2018-11-11T06:47:43.646Z,98347.09
2018-11-11T06:50:14.277Z,98362.73
2018-11-11T06:52:43.755Z,98369.23
2018-11-11T06:55:14.339Z,98377.54
2018-11-11T06:57:43.888Z,98377.90
2018-11-11T07:00:15.713Z,98383.56
2018-11-11T07:02:57.637Z,98386.19
2018-11-11T07:05:26.998Z,98385.73
2018-11-11T07:07:56.864Z,98395.93
2018-11-11T07:10:26.945Z,98389.22
2018-11-11T07:12:57.609Z,98398.21
2018-11-11T07:15:27.068Z,98396.31
2018-11-11T07:17:55.982Z,98395.23
2018-11-11T07:20:25.784Z,98398.24
2018-11-11T07:22:54.940Z,98399.32
2018-11-11T07:25:23.958Z,98402.33
2018-11-11T07:27:53.082Z,98401.76
2018-11-11T07:30:22.450Z,98399.94
2018-11-11T07:32:51.532Z,98391.88
2018-11-11T07:35:21.092Z,98398.26
2018-11-11T07:37:51.170Z,98400.69
2018-11-11T07:40:21.796Z,98409.84
2018-11-11T07:42:51.411Z,98408.03
2018-11-11T07:45:20.424Z,98403.91
2018-11-11T07:47:50.039Z,98407.31
2018-11-11T07:50:19.087Z,98418.63
2018-11-11T07:52:48.782Z,98421.03
2018-11-11T07:55:25.884Z,98416.08
2018-11-11T07:57:56.778Z,98431.98
2018-11-11T08:00:34.113Z,98430.55
2018-11-11T08:03:13.566Z,98435.12
2018-11-11T08:05:50.799Z,98428.72
2018-11-11T08:08:29.583Z,98437.87
2018-11-11T08:11:12.702Z,98453.91
2018-11-11T08:16:24.528Z,98447.18
2018-11-11T08:18:56.662Z,98440.70
2018-11-11T08:21:26.038Z,98452.98
2018-11-11T08:24:17.662Z,98459.22
2018-11-11T08:27:04.177Z,98471.62
2018-11-11T08:29:47.815Z,98476.70
2018-11-11T08:32:25.394Z,98479.12
2018-11-11T08:35:00.778Z,98482.61
2018-11-11T08:37:37.516Z,98493.06
2018-11-11T08:40:12.242Z,98487.64
2018-11-11T08:42:43.863Z,98500.41
2018-11-11T08:45:20.387Z,98510.64
2018-11-11T08:47:58.259Z,98503.38
2018-11-11T08:50:33.114Z,98497.88
2018-11-11T08:53:04.884Z,98496.52
2018-11-11T08:55:41.675Z,98499.20
2018-11-11T08:58:23.183Z,98486.53
2018-11-11T09:01:06.365Z,98481.62
2018-11-11T09:03:39.441Z,98492.13
2018-11-11T09:06:14.127Z,98487.30
2018-11-11T09:08:50.266Z,98494.55
2018-11-11T09:11:25.580Z,98501.91
2018-11-11T09:14:03.583Z,98501.31
2018-11-11T09:16:40.529Z,98501.81
2018-11-11T09:19:12.411Z,98510.50
2018-11-11T09:21:59.774Z,98511.72
2018-11-11T09:24:47.139Z,98512.80
2018-11-11T09:27:33.602Z,98519.95
2018-11-11T09:30:16.385Z,98524.98
2018-11-11T09:32:59.891Z,98530.36
2018-11-11T09:35:37.217Z,98534.44
2018-11-11T09:38:12.602Z,98536.34
2018-11-11T09:41:04.173Z,98535.28
2018-11-11T09:46:41.417Z,98530.73
2018-11-11T09:49:21.395Z,98534.19
2018-11-11T09:51:51.156Z,98547.66
2018-11-11T09:54:22.344Z,98555.16
2018-11-11T09:56:57.517Z,98553.25
2018-11-11T09:59:44.085Z,98543.53
2018-11-11T10:02:22.803Z,98546.88
2018-11-11T10:05:44.378Z,98540.13
2018-11-11T10:08:28.495Z,98534.03
2018-11-11T10:11:17.118Z,98536.00
2018-11-11T10:13:59.675Z,98529.68
2018-11-11T10:17:13.412Z,98535.42
2018-11-11T10:19:56.165Z,98538.42
2018-11-11T10:22:49.851Z,98531.38
2018-11-11T10:25:30.220Z,98528.42
2018-11-11T10:28:15.491Z,98521.09
2018-11-11T10:32:00.427Z,98515.89
2018-11-11T10:35:10.888Z,98522.39
2018-11-11T10:37:48.589Z,98512.90
2018-11-11T10:43:18.456Z,98498.95
2018-11-11T10:45:52.431Z,98499.23
2018-11-11T10:48:34.605Z,98495.36
2018-11-11T10:51:20.181Z,98489.12
2018-11-11T10:53:54.436Z,98489.55
2018-11-11T10:56:27.688Z,98495.11
2018-11-11T10:59:00.369Z,98494.97
2018-11-11T11:01:37.969Z,98498.92
2018-11-11T11:04:06.668Z,98499.11
2018-11-11T11:09:16.153Z,98497.31
2018-11-11T11:11:46.100Z,98503.66
2018-11-11T11:14:15.341Z,98508.79
2018-11-11T11:16:46.370Z,98516.41
2018-11-11T11:19:15.782Z,98525.94
2018-11-11T11:21:44.995Z,98520.42
2018-11-11T11:24:15.815Z,98524.13
2018-11-11T11:26:45.258Z,98532.84
2018-11-11T11:29:13.893Z,98527.88
2018-11-11T11:31:44.974Z,98526.70
2018-11-11T11:34:14.553Z,98527.47
2018-11-11T11:36:52.611Z,98530.02
2018-11-11T11:39:33.966Z,98537.41
2018-11-11T11:42:06.497Z,98538.89
2018-11-11T11:44:39.957Z,98542.25
2018-11-11T11:47:18.316Z,98552.37
2018-11-11T11:49:51.334Z,98540.22
2018-11-11T11:52:25.921Z,98551.05
2018-11-11T11:54:57.836Z,98549.72
2018-11-11T11:57:38.294Z,98536.67
2018-11-11T12:00:15.780Z,98542.35
2018-11-11T12:02:49.514Z,98550.80
2018-11-11T12:05:25.912Z,98549.95
2018-11-11T12:08:00.188Z,98542.91
2018-11-11T12:10:32.031Z,98555.40
2018-11-11T12:13:04.383Z,98560.67
2018-11-11T12:15:38.034Z,98550.56
2018-11-11T12:18:09.102Z,98571.11
2018-11-11T12:20:41.109Z,98562.55
2018-11-11T12:23:23.499Z,98568.65
2018-11-11T12:25:56.909Z,98569.48
2018-11-11T12:28:37.292Z,98566.08
2018-11-11T12:31:13.688Z,98561.41
2018-11-11T12:33:52.574Z,98555.59
2018-11-11T12:36:30.949Z,98566.42
2018-11-11T12:39:09.431Z,98567.24
2018-11-11T12:41:40.517Z,98571.66
2018-11-11T12:44:13.250Z,98570.89
2018-11-11T12:46:50.209Z,98571.37
2018-11-11T12:49:24.504Z,98574.52
2018-11-11T12:52:07.939Z,98580.19
2018-11-11T12:54:40.490Z,98565.30
2018-11-11T12:57:11.655Z,98570.16
2018-11-11T12:59:47.790Z,98580.57
2018-11-11T13:02:21.791Z,98581.05
2018-11-11T13:04:58.185Z,98586.66
2018-11-11T13:07:28.683Z,98590.77
2018-11-11T13:10:02.084Z,98587.64
2018-11-11T13:12:36.210Z,98592.47
2018-11-11T13:15:08.773Z,98584.37
2018-11-11T13:18:00.142Z,98588.59
2018-11-11T13:20:34.441Z,98592.15
2018-11-11T13:23:12.820Z,98595.81
2018-11-11T13:25:45.735Z,98596.55
2018-11-11T13:28:20.490Z,98602.12
2018-11-11T13:30:52.842Z,98596.31
2018-11-11T13:33:35.997Z,98589.25
2018-11-11T13:36:13.317Z,98582.00
2018-11-11T13:38:48.035Z,98581.20
2018-11-11T13:41:40.976Z,98581.06
2018-11-11T13:44:12.026Z,98582.79
2018-11-11T13:46:41.294Z,98580.92
2018-11-11T13:49:11.222Z,98576.02
2018-11-11T13:51:40.505Z,98575.97
2018-11-11T13:54:12.027Z,98577.42
2018-11-11T13:56:41.888Z,98581.45
2018-11-11T13:59:11.492Z,98580.12
2018-11-11T14:01:48.552Z,98576.02
2018-11-11T14:04:29.205Z,98577.89
2018-11-11T14:07:01.336Z,98584.48
2018-11-11T14:09:31.819Z,98572.88
2018-11-11T14:12:04.724Z,98599.23
2018-11-11T14:14:33.831Z,98592.09
2018-11-11T14:17:02.597Z,98587.63
2018-11-11T14:19:31.856Z,98584.87
2018-11-11T14:22:07.738Z,98593.17
2018-11-11T14:24:48.448Z,98592.89
2018-11-11T14:27:26.389Z,98593.83
2018-11-11T14:30:02.548Z,98597.08
2018-11-11T14:32:36.023Z,98584.67
2018-11-11T14:35:11.049Z,98573.17
2018-11-11T14:37:43.125Z,98566.98
2018-11-11T14:40:27.418Z,98569.95
2018-11-11T14:42:58.284Z,98566.50
2018-11-11T14:45:41.352Z,98554.27
2018-11-11T14:48:12.636Z,98554.88
2018-11-11T14:50:49.763Z,98555.08
2018-11-11T14:53:25.098Z,98564.28
2018-11-11T14:55:57.161Z,98563.22
2018-11-11T14:58:29.691Z,98564.39
2018-11-11T15:01:01.393Z,98567.13
2018-11-11T15:03:33.580Z,98569.20
2018-11-11T15:06:14.975Z,98568.81
2018-11-11T15:08:51.669Z,98565.72
2018-11-11T15:11:24.670Z,98571.78
2018-11-11T15:14:03.218Z,98589.16
2018-11-11T15:16:42.022Z,98584.47
2018-11-11T15:19:18.129Z,98579.81
2018-11-11T15:21:56.437Z,98577.99
2018-11-11T15:24:27.549Z,98578.53
2018-11-11T15:27:15.551Z,98578.27
2018-11-11T15:29:49.696Z,98582.47
2018-11-11T15:32:30.386Z,98573.63
2018-11-11T15:35:03.907Z,98575.23
2018-11-11T15:37:40.506Z,98557.83
2018-11-11T15:40:18.264Z,98572.84
2018-11-11T15:42:56.074Z,98569.17
2018-11-11T15:45:33.550Z,98562.66
2018-11-11T15:48:05.036Z,98571.48
2018-11-11T15:50:40.314Z,98575.79
2018-11-11T15:53:16.012Z,98575.97
2018-11-11T15:55:50.183Z,98572.62
2018-11-11T15:58:27.738Z,98576.58
2018-11-11T16:01:01.064Z,98587.70
2018-11-11T16:03:37.953Z,98586.33
2018-11-11T16:06:11.507Z,98588.68
2018-11-11T16:08:54.063Z,98590.33
2018-11-11T16:11:25.861Z,98589.24
2018-11-11T16:14:09.155Z,98592.19
2018-11-11T16:16:46.889Z,98599.34
2018-11-11T16:19:29.185Z,98612.00
2018-11-11T16:22:02.949Z,98615.70
2018-11-11T16:24:42.929Z,98613.89
2018-11-11T16:30:07.521Z,98607.05
2018-11-11T16:32:42.146Z,98619.18
2018-11-11T16:35:15.156Z,98625.70
2018-11-11T16:37:46.965Z,98616.38
2018-11-11T16:40:50.570Z,98623.45
2018-11-11T16:43:23.347Z,98630.95
2018-11-11T16:45:54.415Z,98634.05
2018-11-11T16:48:23.598Z,98628.64
2018-11-11T16:51:00.900Z,98622.27
2018-11-11T16:53:33.296Z,98625.88
2018-11-11T16:56:03.290Z,98631.34
2018-11-11T16:58:36.172Z,98641.71
2018-11-11T17:01:11.140Z,98635.65
2018-11-11T17:03:40.581Z,98632.08
2018-11-11T17:06:20.179Z,98641.84
2018-11-11T17:08:57.137Z,98644.28
2018-11-11T17:11:29.526Z,98649.64
2018-11-11T17:14:05.797Z,98653.16
2018-11-11T17:16:38.417Z,98637.81
2018-11-11T17:19:10.739Z,98641.67
2018-11-11T17:21:43.319Z,98627.23
2018-11-11T17:24:15.903Z,98633.53
2018-11-11T17:26:48.852Z,98636.63
2018-11-11T17:29:22.699Z,98629.34
2018-11-11T17:31:56.576Z,98628.09
2018-11-11T17:34:30.372Z,98621.30
2018-11-11T17:37:03.492Z,98605.77
2018-11-11T17:39:35.583Z,98623.96
2018-11-11T17:42:08.140Z,98621.05
2018-11-11T17:44:39.071Z,98615.98
2018-11-11T17:47:13.780Z,98621.45
2018-11-11T17:49:49.676Z,98629.42
2018-11-11T17:52:22.820Z,98639.02
2018-11-11T17:55:03.319Z,98640.06
2018-11-11T17:57:35.373Z,98643.92
2018-11-11T18:00:11.417Z,98647.64
2018-11-11T18:02:48.594Z,98636.37
2018-11-11T18:05:20.394Z,98640.28
2018-11-11T18:07:58.479Z,98640.42
2018-11-11T18:10:31.652Z,98655.19
2018-11-11T18:13:19.909Z,98653.74
2018-11-11T18:15:52.337Z,98665.16
2018-11-11T18:18:33.164Z,98651.78
2018-11-11T18:21:01.839Z,98649.31
2018-11-11T18:23:31.764Z,98659.28
2018-11-11T18:26:00.460Z,98658.98
2018-11-11T18:28:29.766Z,98661.66
2018-11-11T18:30:59.587Z,98671.03
2018-11-11T18:33:28.302Z,98673.19
2018-11-11T18:35:57.908Z,98661.88
2018-11-11T18:38:27.261Z,98658.14
2018-11-11T18:40:56.361Z,98656.98
2018-11-11T18:43:25.612Z,98653.61
2018-11-11T18:45:55.232Z,98642.23
2018-11-11T18:48:24.677Z,98635.23
2018-11-11T18:50:54.058Z,98636.45
2018-11-11T18:53:23.214Z,98640.44
2018-11-11T18:55:52.457Z,98635.52
2018-11-11T18:58:21.694Z,98634.91
2018-11-11T19:00:52.070Z,98640.15
2018-11-11T19:03:21.786Z,98640.52
2018-11-11T19:05:51.876Z,98636.17
2018-11-11T19:08:21.616Z,98633.56
2018-11-11T19:10:51.403Z,98627.55
2018-11-11T19:13:20.724Z,98631.41
2018-11-11T19:15:50.125Z,98632.62
2018-11-11T19:18:19.928Z,98632.28
2018-11-11T19:20:49.491Z,98619.25
2018-11-11T19:23:18.403Z,98617.91
2018-11-11T19:25:48.080Z,98629.53
2018-11-11T19:28:17.602Z,98627.62
2018-11-11T19:30:46.349Z,98626.16
2018-11-11T19:33:15.791Z,98625.55
2018-11-11T19:35:45.004Z,98634.63
2018-11-11T19:38:14.282Z,98613.63
2018-11-11T19:40:44.056Z,98625.72
2018-11-11T19:43:12.977Z,98636.09
2018-11-11T19:45:42.233Z,98649.55
2018-11-11T19:48:12.650Z,98658.81
2018-11-11T19:50:43.190Z,98657.09
2018-11-11T19:53:12.605Z,98663.16
2018-11-11T19:55:41.444Z,98657.58
2018-11-11T19:58:10.805Z,98655.14
2018-11-11T20:00:40.205Z,98658.55
2018-11-11T20:03:09.202Z,98661.21
2018-11-11T20:05:38.529Z,98657.97
2018-11-11T20:08:08.116Z,98672.46
2018-11-11T20:10:36.898Z,98663.25
2018-11-11T20:13:06.309Z,98668.12
2018-11-11T20:15:35.340Z,98664.75
2018-11-11T20:18:05.464Z,98677.91
2018-11-11T20:20:35.769Z,98675.97
2018-11-11T20:23:05.920Z,98686.47
2018-11-11T20:25:35.333Z,98688.38
2018-11-11T20:28:05.415Z,98690.94
2018-11-11T20:30:36.935Z,98689.09
2018-11-11T20:33:06.258Z,98685.81
2018-11-11T20:35:35.597Z,98687.63
2018-11-11T20:38:04.204Z,98685.81
2018-11-11T20:40:33.549Z,98674.10
2018-11-11T20:43:02.569Z,98686.91
2018-11-11T20:45:33.480Z,98681.82
2018-11-11T20:48:02.682Z,98697.91
2018-11-11T20:50:32.901Z,98710.36
2018-11-11T20:53:03.977Z,98717.00
2018-11-11T20:55:32.962Z,98719.66
2018-11-11T20:58:02.112Z,98743.95
2018-11-11T21:00:32.500Z,98751.58
2018-11-11T21:03:08.007Z,98778.17
2018-11-11T21:05:46.059Z,98787.48
2018-11-11T21:08:15.176Z,98801.27
2018-11-11T21:10:50.678Z,98809.50
2018-11-11T21:13:25.212Z,98819.50
2018-11-11T21:16:00.396Z,98825.31
2018-11-11T21:18:38.417Z,98834.84
2018-11-11T21:21:11.450Z,98829.73
2018-11-11T21:23:45.989Z,98823.05
2018-11-11T21:26:25.573Z,98823.41
2018-11-11T21:29:14.139Z,98841.04
2018-11-11T21:31:48.064Z,98872.20
2018-11-11T21:34:18.243Z,98874.31
2018-11-11T21:36:53.347Z,98867.39
2018-11-11T21:39:22.213Z,98853.84
2018-11-11T21:41:50.804Z,98856.05
2018-11-11T21:44:19.537Z,98867.59
2018-11-11T21:46:48.922Z,98868.39
2018-11-11T21:49:18.838Z,98872.50
2018-11-11T21:51:47.789Z,98863.97
2018-11-11T21:54:17.659Z,98870.27
2018-11-11T21:56:46.482Z,98868.22
2018-11-11T21:59:15.689Z,98865.09
2018-11-11T22:01:45.923Z,98871.57
2018-11-11T22:04:16.488Z,98864.57
2018-11-11T22:06:46.559Z,98866.23
2018-11-11T22:09:15.987Z,98873.23
2018-11-11T22:11:45.386Z,98869.88
2018-11-11T22:14:13.925Z,98867.95
2018-11-11T22:16:42.949Z,98865.47
2018-11-11T22:19:12.446Z,98872.70
2018-11-11T22:21:41.811Z,98873.46
2018-11-11T22:24:11.156Z,98875.48
2018-11-11T22:26:41.471Z,98869.33
2018-11-11T22:29:12.016Z,98875.03
2018-11-11T22:31:41.265Z,98871.66
2018-11-11T22:34:10.061Z,98877.89
2018-11-11T22:36:38.884Z,98874.75
2018-11-11T22:39:09.783Z,98888.27
2018-11-11T22:41:40.232Z,98887.30
2018-11-11T22:44:12.002Z,98889.59
2018-11-11T22:46:40.777Z,98899.45
2018-11-11T22:49:09.857Z,98893.65
2018-11-11T22:51:40.891Z,98904.09
2018-11-11T22:54:10.224Z,98899.07
2018-11-11T22:56:39.812Z,98896.05
2018-11-11T22:59:09.160Z,98901.06
2018-11-11T23:01:39.851Z,98900.70
2018-11-11T23:04:08.876Z,98899.36
2018-11-11T23:06:38.602Z,98900.45
2018-11-11T23:09:22.208Z,98900.91
2018-11-11T23:11:52.091Z,98889.00
2018-11-11T23:14:31.745Z,98885.55
2018-11-11T23:17:03.287Z,98899.06
2018-11-11T23:19:39.989Z,98911.11
2018-11-11T23:22:15.251Z,98907.73
2018-11-11T23:24:47.303Z,98914.17
2018-11-11T23:27:17.828Z,98913.33
2018-11-11T23:29:48.193Z,98912.11
2018-11-11T23:32:23.366Z,98915.78
2018-11-11T23:34:52.286Z,98915.92
2018-11-11T23:37:28.865Z,98911.21
2018-11-11T23:40:01.251Z,98905.43
2018-11-11T23:42:37.636Z,98912.73
2018-11-11T23:45:09.257Z,98922.30
2018-11-11T23:47:39.185Z,98922.30
2018-11-11T23:50:13.243Z,98916.68
2018-11-11T23:52:47.685Z,98915.64
2018-11-11T23:55:24.135Z,98913.09
2018-11-11T23:57:53.429Z,98909.91
